createdAt,value
2022-09-17T00:00:03.268Z,1.60
2022-09-17T00:03:50.780Z,1.95
2022-09-17T00:07:33.374Z,1.65
2022-09-17T00:11:17.600Z,1.70
2022-09-17T00:15:00.695Z,1.73
2022-09-17T00:18:43.262Z,1.70
2022-09-17T00:22:27.560Z,1.73
2022-09-17T00:26:10.196Z,1.30
2022-09-17T00:29:52.882Z,1.67
2022-09-17T00:33:36.087Z,1.90
2022-09-17T00:37:19.108Z,1.90
2022-09-17T00:41:03.720Z,1.92
2022-09-17T00:44:50.931Z,1.80
2022-09-17T00:48:33.983Z,1.60
2022-09-17T00:52:20.987Z,1.63
2022-09-17T00:56:10.946Z,1.50
2022-09-17T00:59:53.769Z,1.58
2022-09-17T01:03:36.736Z,1.55
2022-09-17T01:07:36.171Z,2.42
2022-09-17T01:11:39.887Z,2.22
2022-09-17T01:15:32.839Z,1.40
2022-09-17T01:19:39.081Z,1.15
2022-09-17T01:23:48.282Z,1.63
2022-09-17T01:28:26.475Z,1.58
2022-09-17T01:32:15.348Z,1.17
2022-09-17T01:36:07.512Z,1.45
2022-09-17T01:39:54.857Z,1.65
2022-09-17T01:43:44.006Z,1.40
2022-09-17T01:47:32.828Z,1.40
2022-09-17T01:51:19.553Z,1.50
2022-09-17T01:55:07.077Z,2.05
2022-09-17T01:58:54.685Z,1.48
2022-09-17T02:02:44.431Z,1.50
2022-09-17T02:06:31.262Z,1.73
2022-09-17T02:10:18.432Z,1.60
2022-09-17T02:14:05.228Z,1.48
2022-09-17T02:17:53.228Z,1.45
2022-09-17T02:21:41.813Z,1.67
2022-09-17T02:25:30.144Z,1.80
2022-09-17T02:29:18.764Z,1.83
2022-09-17T02:33:06.950Z,1.30
2022-09-17T02:36:49.597Z,1.73
2022-09-17T02:40:37.206Z,1.27
2022-09-17T02:44:27.256Z,1.75
2022-09-17T02:48:35.070Z,2.10
2022-09-17T02:52:34.506Z,2.42
2022-09-17T02:56:25.456Z,2.13
2022-09-17T03:00:14.611Z,2.17
2022-09-17T03:04:00.815Z,1.90
2022-09-17T03:07:43.755Z,2.88
2022-09-17T03:11:26.820Z,1.92
2022-09-17T03:15:10.287Z,1.67
2022-09-17T03:22:36.790Z,1.30
2022-09-17T03:26:19.947Z,1.50
2022-09-17T03:30:02.723Z,1.60
2022-09-17T03:33:45.555Z,2.90
2022-09-17T03:37:32.741Z,1.77
2022-09-17T03:41:16.869Z,1.88
2022-09-17T03:44:59.332Z,1.40
2022-09-17T03:48:42.354Z,1.10
2022-09-17T03:52:24.851Z,1.97
2022-09-17T03:56:08.756Z,1.73
2022-09-17T03:59:52.557Z,1.90
2022-09-17T04:03:35.106Z,3.15
2022-09-17T04:07:17.669Z,1.65
2022-09-17T04:11:00.522Z,2.13
2022-09-17T04:14:43.102Z,1.87
2022-09-17T04:18:27.282Z,1.77
2022-09-17T04:22:09.853Z,2.20
2022-09-17T04:25:52.676Z,1.75
2022-09-17T04:29:35.512Z,2.20
2022-09-17T04:33:18.090Z,1.83
2022-09-17T04:37:02.305Z,2.00
2022-09-17T04:40:44.987Z,2.10
2022-09-17T04:44:30.982Z,2.17
2022-09-17T04:48:13.729Z,2.72
2022-09-17T04:51:56.343Z,1.83
2022-09-17T04:55:40.383Z,1.87
2022-09-17T04:59:22.696Z,2.58
2022-09-17T05:03:05.563Z,2.30
2022-09-17T05:06:48.040Z,2.08
2022-09-17T05:10:30.853Z,2.25
2022-09-17T05:14:15.185Z,2.78
2022-09-17T05:17:58.014Z,2.70
2022-09-17T05:21:40.480Z,3.60
2022-09-17T05:25:24.862Z,2.63
2022-09-17T05:29:07.727Z,2.50
2022-09-17T05:33:00.316Z,2.80
2022-09-17T05:36:43.250Z,2.55
2022-09-17T05:40:27.213Z,4.10
2022-09-17T05:44:09.622Z,2.58
2022-09-17T05:47:57.547Z,2.67
2022-09-17T05:51:39.969Z,2.30
2022-09-17T05:55:24.354Z,2.40
2022-09-17T05:59:07.312Z,2.40
2022-09-17T06:02:57.758Z,2.45
2022-09-17T06:06:41.649Z,3.28
2022-09-17T06:10:24.477Z,2.47
2022-09-17T06:14:07.268Z,2.15
2022-09-17T06:17:50.039Z,2.20
2022-09-17T06:21:33.996Z,1.70
2022-09-17T06:25:16.632Z,2.17
2022-09-17T06:29:01.003Z,1.88
2022-09-17T06:32:43.570Z,2.40
2022-09-17T06:36:26.432Z,2.30
2022-09-17T06:40:11.830Z,2.30
2022-09-17T06:43:55.013Z,2.28
2022-09-17T06:47:37.899Z,2.22
2022-09-17T06:51:20.652Z,2.40
2022-09-17T06:55:03.638Z,2.28
2022-09-17T06:58:47.981Z,1.83
2022-09-17T07:02:30.440Z,2.33
2022-09-17T07:06:13.630Z,2.00
2022-09-17T07:09:56.387Z,2.15
2022-09-17T07:13:40.201Z,1.93
2022-09-17T07:17:24.327Z,2.33
2022-09-17T07:21:08.323Z,2.60
2022-09-17T07:24:51.059Z,3.45
2022-09-17T07:28:34.750Z,2.80
2022-09-17T07:32:17.636Z,2.63
2022-09-17T07:36:04.003Z,3.53
2022-09-17T07:39:46.688Z,2.83
2022-09-17T07:43:31.116Z,3.03
2022-09-17T07:47:14.186Z,3.22
2022-09-17T07:50:57.121Z,2.47
2022-09-17T07:54:41.248Z,2.95
2022-09-17T07:58:24.695Z,3.78
2022-09-17T08:05:52.706Z,3.88
2022-09-17T08:09:35.808Z,2.90
2022-09-17T08:13:20.023Z,2.72
2022-09-17T08:17:02.683Z,3.05
2022-09-17T08:20:45.571Z,3.08
2022-09-17T08:24:28.436Z,2.97
2022-09-17T08:28:11.351Z,2.80
2022-09-17T08:31:55.510Z,2.67
2022-09-17T08:35:38.032Z,3.00
2022-09-17T08:39:20.780Z,2.30
2022-09-17T08:43:03.792Z,2.63
2022-09-17T08:46:51.118Z,3.83
2022-09-17T08:50:39.169Z,2.42
2022-09-17T08:54:32.790Z,2.75
2022-09-17T08:58:32.026Z,2.60
2022-09-17T09:02:27.359Z,2.55
2022-09-17T09:06:13.169Z,2.63
2022-09-17T09:10:07.544Z,2.10
2022-09-17T09:13:52.746Z,2.53
2022-09-17T09:17:42.851Z,2.50
2022-09-17T09:21:29.503Z,3.20
2022-09-17T09:25:20.348Z,2.17
2022-09-17T09:29:11.941Z,2.70
2022-09-17T09:33:01.180Z,2.92
2022-09-17T09:36:45.982Z,2.08
2022-09-17T09:40:35.693Z,3.15
2022-09-17T09:44:18.950Z,1.77
2022-09-17T09:48:08.546Z,1.90
2022-09-17T09:52:05.869Z,2.92
2022-09-17T09:56:04.192Z,2.28
2022-09-17T09:59:46.867Z,1.95
2022-09-17T10:03:32.236Z,2.25
2022-09-17T10:07:16.513Z,1.80
2022-09-17T10:11:01.719Z,2.03
2022-09-17T10:14:46.138Z,1.70
2022-09-17T10:18:29.123Z,3.33
2022-09-17T10:22:32.834Z,3.35
2022-09-17T10:26:23.860Z,2.08
2022-09-17T10:30:17.176Z,1.60
2022-09-17T10:37:47.864Z,1.65
2022-09-17T10:41:30.909Z,1.70
2022-09-17T10:45:26.113Z,1.38
2022-09-17T10:49:12.988Z,1.70
2022-09-17T10:52:59.883Z,1.70
2022-09-17T10:56:47.688Z,1.88
2022-09-17T11:00:40.097Z,1.70
2022-09-17T11:04:44.239Z,2.00
2022-09-17T11:08:35.713Z,1.10
2022-09-17T11:12:29.813Z,1.70
2022-09-17T11:16:22.126Z,1.30
2022-09-17T11:20:09.985Z,1.25
2022-09-17T11:24:29.288Z,1.55
2022-09-17T11:28:27.503Z,1.70
2022-09-17T11:32:25.067Z,1.50
2022-09-17T11:36:14.280Z,1.85
2022-09-17T11:40:00.059Z,1.40
2022-09-17T11:43:49.013Z,1.48
2022-09-17T11:47:35.434Z,1.30
2022-09-17T11:51:29.031Z,1.35
2022-09-17T11:55:23.124Z,1.00
2022-09-17T11:59:14.343Z,1.20
2022-09-17T12:03:01.479Z,1.33
2022-09-17T12:06:53.189Z,1.20
2022-09-17T12:10:42.080Z,1.33
2022-09-17T12:14:30.129Z,1.13
2022-09-17T12:18:32.653Z,1.27
2022-09-17T12:22:19.603Z,1.48
2022-09-17T12:26:12.863Z,0.98
2022-09-17T12:30:13.453Z,1.35
2022-09-17T12:34:02.051Z,1.40
2022-09-17T12:37:51.062Z,1.33
2022-09-17T12:41:46.839Z,1.05
2022-09-17T12:45:59.016Z,1.30
2022-09-17T12:50:11.983Z,1.35
2022-09-17T12:54:04.889Z,1.33
2022-09-17T12:57:54.256Z,1.50
2022-09-17T13:01:46.901Z,1.42
2022-09-17T13:05:55.030Z,2.08
2022-09-17T13:10:04.563Z,1.27
2022-09-17T13:13:51.238Z,1.10
2022-09-17T13:17:46.691Z,1.30
2022-09-17T13:21:36.375Z,0.90
2022-09-17T13:25:22.451Z,1.58
2022-09-17T13:29:09.870Z,1.42
2022-09-17T13:32:55.069Z,1.48
2022-09-17T13:36:40.567Z,1.20
2022-09-17T13:40:24.569Z,0.98
2022-09-17T13:44:10.066Z,1.55
2022-09-17T13:47:56.030Z,1.70
2022-09-17T13:51:48.815Z,1.30
2022-09-17T13:55:36.936Z,1.50
2022-09-17T13:59:23.188Z,1.70
2022-09-17T14:03:40.689Z,1.58
2022-09-17T14:07:36.089Z,0.90
2022-09-17T14:11:38.163Z,1.30
2022-09-17T14:15:36.778Z,1.25
2022-09-17T14:19:25.181Z,1.52
2022-09-17T14:23:13.346Z,1.38
2022-09-17T14:27:14.124Z,1.23
2022-09-17T14:30:56.928Z,1.35
2022-09-17T14:34:39.776Z,1.30
2022-09-17T14:38:29.026Z,1.30
2022-09-17T14:42:18.472Z,1.23
2022-09-17T14:46:01.154Z,1.20
2022-09-17T14:49:43.623Z,1.30
2022-09-17T14:53:27.888Z,1.42
2022-09-17T14:57:25.663Z,2.05
2022-09-17T15:01:23.077Z,1.65
2022-09-17T15:05:19.635Z,1.45
2022-09-17T15:09:03.871Z,1.58
2022-09-17T15:12:48.221Z,1.40
2022-09-17T15:16:33.292Z,1.30
2022-09-17T15:20:20.307Z,1.40
2022-09-17T15:24:13.848Z,1.23
2022-09-17T15:27:58.467Z,1.75
2022-09-17T15:31:41.207Z,1.15
2022-09-17T15:35:28.666Z,1.20
2022-09-17T15:39:32.020Z,2.35
2022-09-17T15:43:19.697Z,1.48
2022-09-17T15:47:40.657Z,1.20
2022-09-17T15:51:27.214Z,1.52
2022-09-17T15:55:30.658Z,1.08
2022-09-17T15:59:32.990Z,1.27
2022-09-17T16:04:08.951Z,1.25
2022-09-17T16:07:53.179Z,1.40
2022-09-17T16:11:37.426Z,1.35
2022-09-17T16:15:20.922Z,1.45
2022-09-17T16:22:48.093Z,1.20
2022-09-17T16:26:33.762Z,1.10
2022-09-17T16:30:21.090Z,1.25
2022-09-17T16:34:09.872Z,1.42
2022-09-17T16:37:58.994Z,1.30
2022-09-17T16:41:42.121Z,1.55
2022-09-17T16:49:11.678Z,1.33
2022-09-17T16:53:04.865Z,2.30
2022-09-17T16:56:48.520Z,1.50
2022-09-17T17:00:32.958Z,1.80
2022-09-17T17:04:16.330Z,1.10
2022-09-17T17:08:02.160Z,1.10
2022-09-17T17:11:48.018Z,1.45
2022-09-17T17:15:38.374Z,1.88
2022-09-17T17:19:21.498Z,1.40
2022-09-17T17:23:09.523Z,1.50
2022-09-17T17:26:52.411Z,1.20
2022-09-17T17:30:38.532Z,0.95
2022-09-17T17:34:22.214Z,1.25
2022-09-17T17:41:51.882Z,1.42
2022-09-17T17:45:39.212Z,1.30
2022-09-17T17:49:21.862Z,0.77
2022-09-17T17:53:04.616Z,1.07
2022-09-17T17:56:50.210Z,1.23
2022-09-17T18:00:41.349Z,0.95
2022-09-17T18:04:26.875Z,1.25
2022-09-17T18:08:09.771Z,1.20
2022-09-17T18:11:52.378Z,1.00
2022-09-17T18:15:37.040Z,1.50
2022-09-17T18:19:19.696Z,1.02
2022-09-17T18:23:02.853Z,1.00
2022-09-17T18:26:47.575Z,1.25
2022-09-17T18:30:30.339Z,0.98
2022-09-17T18:34:19.705Z,1.10
2022-09-17T18:38:02.149Z,0.88
2022-09-17T18:41:45.089Z,1.80
2022-09-17T18:45:28.001Z,1.33
2022-09-17T18:49:10.965Z,1.10
2022-09-17T18:52:59.739Z,1.23
2022-09-17T18:56:43.257Z,1.20
2022-09-17T19:00:26.506Z,1.00
2022-09-17T19:04:10.418Z,0.90
2022-09-17T19:07:55.199Z,0.60
2022-09-17T19:11:39.027Z,0.93
2022-09-17T19:15:24.102Z,1.10
2022-09-17T19:19:06.941Z,1.33
2022-09-17T19:22:50.856Z,1.30
2022-09-17T19:26:33.627Z,1.48
2022-09-17T19:30:18.560Z,1.08
2022-09-17T19:34:01.656Z,1.30
2022-09-17T19:37:44.270Z,1.33
2022-09-17T19:41:29.683Z,0.98
2022-09-17T19:45:12.356Z,1.45
2022-09-17T19:49:01.133Z,1.70
2022-09-17T19:52:44.536Z,1.35
2022-09-17T19:56:28.482Z,1.30
2022-09-17T20:00:12.265Z,1.35
2022-09-17T20:03:56.370Z,1.40
2022-09-17T20:07:39.070Z,1.63
2022-09-17T20:11:23.370Z,1.45
2022-09-17T20:15:07.832Z,2.53
2022-09-17T20:18:51.621Z,1.77
2022-09-17T20:22:35.930Z,1.60
2022-09-17T20:26:19.398Z,1.65
2022-09-17T20:30:02.102Z,1.35
2022-09-17T20:33:47.603Z,1.30
2022-09-17T20:38:33.004Z,2.13
2022-09-17T20:41:38.814Z,1.83
2022-09-17T20:45:23.924Z,1.38
2022-09-17T20:49:07.904Z,1.85
2022-09-17T20:52:56.051Z,2.47
2022-09-17T20:56:39.350Z,1.70
2022-09-17T21:00:29.249Z,1.70
2022-09-17T21:04:14.748Z,1.75
2022-09-17T21:07:59.828Z,1.95
2022-09-17T21:11:43.867Z,1.90
2022-09-17T21:15:29.753Z,1.58
2022-09-17T21:19:14.178Z,2.03
2022-09-17T21:22:57.017Z,2.47
2022-09-17T21:26:41.262Z,2.47
2022-09-17T21:30:25.913Z,1.70
2022-09-17T21:34:11.599Z,1.65
2022-09-17T21:37:55.953Z,1.60
2022-09-17T21:41:42.358Z,2.72
2022-09-17T21:45:27.623Z,1.83
2022-09-17T21:49:11.231Z,2.67
2022-09-17T21:52:53.940Z,1.95
2022-09-17T21:56:36.804Z,1.70
2022-09-17T22:00:23.192Z,1.98
2022-09-17T22:04:08.500Z,2.63
2022-09-17T22:07:51.555Z,1.88
2022-09-17T22:11:35.863Z,2.22
2022-09-17T22:15:18.733Z,2.22
2022-09-17T22:19:02.872Z,2.07
2022-09-17T22:22:47.319Z,5.10
2022-09-17T22:26:33.984Z,1.60
2022-09-17T22:30:17.183Z,1.52
2022-09-17T22:33:59.806Z,2.30
2022-09-17T22:52:43.078Z,1.50
2022-09-17T22:56:27.093Z,2.10
2022-09-17T23:00:12.074Z,2.00
2022-09-17T23:03:54.763Z,1.95
2022-09-17T23:07:37.910Z,1.77
2022-09-17T23:11:24.426Z,1.48
2022-09-17T23:15:07.782Z,1.30
2022-09-17T23:22:33.105Z,1.92
2022-09-17T23:26:18.065Z,2.00
2022-09-17T23:30:01.700Z,2.20
2022-09-17T23:33:45.028Z,2.50
2022-09-17T23:37:28.559Z,1.73
2022-09-17T23:41:13.781Z,1.65
2022-09-17T23:44:56.454Z,1.83
2022-09-17T23:48:40.697Z,1.88
2022-09-17T23:52:23.268Z,1.90
2022-09-17T23:56:12.234Z,2.47
2022-09-17T23:59:54.847Z,1.83
